Time;durP1;ratioP1;P1;durP2;ratioP2;P2;SDS_P1;SDS_P2;PMS_P1;PMS_P2;Temp;Humidity;BMP_temperature;BMP_pressure;BME280_temperature;BME280_humidity;BME280_pressure;Samples;Min_cycle;Max_cycle;Signal;HPM_P1;HPM_P2
2024/04/01 00:00:06;;;;;;;4.60;1.63;;;;;;;;;;5028737;28;20052;-56
2024/04/01 00:02:32;;;;;;;3.83;0.77;;;;;;;;;;5015299;28;20050;-55
2024/04/01 00:04:59;;;;;;;5.50;0.82;;;;;;;;;;5015602;28;20056;-52
2024/04/01 00:07:25;;;;;;;3.88;0.90;;;;;;;;;;5015394;28;20053;-54
2024/04/01 00:09:52;;;;;;;5.43;0.80;;;;;;;;;;5015934;28;20053;-52
2024/04/01 00:12:18;;;;;;;1.50;0.55;;;;;;;;;;5015236;28;20057;-55
2024/04/01 00:14:46;;;;;;;4.60;0.68;;;;;;;;;;5015087;28;20420;-52
2024/04/01 00:17:12;;;;;;;2.47;0.52;;;;;;;;;;5015081;28;20050;-54
2024/04/01 00:19:39;;;;;;;3.20;0.57;;;;;;;;;;5014727;28;20065;-52
2024/04/01 00:22:05;;;;;;;4.85;0.90;;;;;;;;;;5014766;28;20053;-49
2024/04/01 00:24:32;;;;;;;4.43;0.77;;;;;;;;;;5014996;28;20056;-52
2024/04/01 00:26:58;;;;;;;2.30;0.70;;;;;;;;;;5015118;28;20386;-49
2024/04/01 00:29:25;;;;;;;4.35;0.70;;;;;;;;;;5015063;28;20050;-52
2024/04/01 00:31:52;;;;;;;2.42;0.60;;;;;;;;;;5014721;28;20413;-53
2024/04/01 00:34:19;;;;;;;2.08;0.60;;;;;;;;;;5014676;28;20497;-55
2024/04/01 00:36:45;;;;;;;2.33;0.82;;;;;;;;;;5014728;28;20046;-50
2024/04/01 00:39:12;;;;;;;1.55;0.40;;;;;;;;;;5015009;28;20524;-54
2024/04/01 00:41:38;;;;;;;2.72;0.70;;;;;;;;;;5014611;28;20045;-56
2024/04/01 00:44:05;;;;;;;2.03;0.40;;;;;;;;;;5014400;28;20056;-53
2024/04/01 00:46:30;;;;;;;4.10;1.05;;;;;;;;;;5014466;28;20053;-49
2024/04/01 00:48:59;;;;;;;3.63;0.60;;;;;;;;;;5014663;28;20508;-55
2024/04/01 00:51:25;;;;;;;2.42;0.60;;;;;;;;;;5013839;28;20071;-52
2024/04/01 00:53:53;;;;;;;3.92;1.23;;;;;;;;;;5013829;28;20049;-50
2024/04/01 00:56:19;;;;;;;5.43;0.93;;;;;;;;;;5014514;28;20494;-55
2024/04/01 00:58:46;;;;;;;5.00;0.85;;;;;;;;;;5014414;28;20084;-53
2024/04/01 01:01:12;;;;;;;2.80;0.60;;;;;;;;;;5014324;28;20054;-51
2024/04/01 01:03:39;;;;;;;2.38;0.52;;;;;;;;;;5013798;28;20133;-52
2024/04/01 01:06:11;;;;;;;8.65;2.10;;;;;;;;;;5014598;28;20433;-55
2024/04/01 01:08:38;;;;;;;5.07;0.90;;;;;;;;;;5014316;28;20135;-51
2024/04/01 01:11:04;;;;;;;3.15;0.80;;;;;;;;;;5014225;28;20572;-50
2024/04/01 01:13:31;;;;;;;1.92;0.77;;;;;;;;;;5013772;28;20046;-52
2024/04/01 01:15:57;;;;;;;2.92;0.60;;;;;;;;;;5013969;28;20529;-54
2024/04/01 01:18:24;;;;;;;2.83;0.60;;;;;;;;;;5014212;28;20144;-50
2024/04/01 01:20:50;;;;;;;6.35;1.00;;;;;;;;;;5014408;28;20049;-52
2024/04/01 01:23:18;;;;;;;2.90;0.50;;;;;;;;;;5014773;28;20046;-52
2024/04/01 01:25:44;;;;;;;3.83;0.70;;;;;;;;;;5015020;28;20049;-51
2024/04/01 01:28:11;;;;;;;2.70;0.60;;;;;;;;;;5015248;28;20081;-51
2024/04/01 01:30:37;;;;;;;2.65;0.60;;;;;;;;;;5015568;28;20498;-49
2024/04/01 01:33:06;;;;;;;4.13;0.73;;;;;;;;;;5015135;28;20052;-50
2024/04/01 01:35:35;;;;;;;2.78;1.10;;;;;;;;;;5014563;28;20104;-52
2024/04/01 01:38:03;;;;;;;3.83;0.60;;;;;;;;;;5014813;28;20084;-52
2024/04/01 01:40:30;;;;;;;3.85;0.60;;;;;;;;;;5014445;28;20050;-52
2024/04/01 01:42:58;;;;;;;3.15;0.80;;;;;;;;;;5014243;28;20120;-54
2024/04/01 01:45:24;;;;;;;5.13;0.98;;;;;;;;;;5014021;28;20050;-54
2024/04/01 01:47:51;;;;;;;5.50;0.93;;;;;;;;;;5014476;28;20061;-53
2024/04/01 01:50:17;;;;;;;5.68;0.82;;;;;;;;;;5014412;28;20528;-54
2024/04/01 01:52:46;;;;;;;3.10;0.60;;;;;;;;;;5014450;28;20050;-53
2024/04/01 01:55:12;;;;;;;2.70;0.75;;;;;;;;;;5014530;28;20060;-52
2024/04/01 01:57:41;;;;;;;3.03;0.63;;;;;;;;;;5014208;28;20060;-54
2024/04/01 02:00:13;;;;;;;1.92;0.65;;;;;;;;;;5014335;28;20103;-52
2024/04/01 02:02:40;;;;;;;1.33;0.50;;;;;;;;;;5013694;28;20041;-52
2024/04/01 02:05:07;;;;;;;3.30;0.80;;;;;;;;;;5014078;28;20056;-51
2024/04/01 02:07:34;;;;;;;5.30;1.38;;;;;;;;;;5014284;28;20088;-54
2024/04/01 02:10:00;;;;;;;3.70;1.00;;;;;;;;;;5014206;28;20112;-54
2024/04/01 02:12:28;;;;;;;1.50;0.57;;;;;;;;;;5013641;28;20050;-52
2024/04/01 02:14:55;;;;;;;2.60;0.52;;;;;;;;;;5013856;28;20049;-50
2024/04/01 02:17:23;;;;;;;4.35;0.80;;;;;;;;;;5013708;28;20527;-52
2024/04/01 02:19:49;;;;;;;4.75;0.75;;;;;;;;;;5013951;28;20046;-49
2024/04/01 02:22:19;;;;;;;2.30;0.75;;;;;;;;;;5013938;28;20084;-54
2024/04/01 02:24:45;;;;;;;4.30;0.60;;;;;;;;;;5013768;28;20076;-52
2024/04/01 02:27:12;;;;;;;3.35;0.60;;;;;;;;;;5014011;28;20054;-54
2024/04/01 02:29:38;;;;;;;3.10;0.60;;;;;;;;;;5013569;28;20137;-51
2024/04/01 02:32:07;;;;;;;2.50;0.75;;;;;;;;;;5013406;28;20141;-52
2024/04/01 02:34:33;;;;;;;4.45;0.77;;;;;;;;;;5013467;28;20125;-53
2024/04/01 02:37:00;;;;;;;5.30;1.10;;;;;;;;;;5013547;28;20161;-55
2024/04/01 02:39:26;;;;;;;4.45;0.95;;;;;;;;;;5013482;28;20121;-51
2024/04/01 02:41:53;;;;;;;5.05;0.80;;;;;;;;;;5012832;28;20136;-51
2024/04/01 02:44:19;;;;;;;2.72;0.70;;;;;;;;;;5012030;28;20046;-50
2024/04/01 02:46:46;;;;;;;3.47;0.63;;;;;;;;;;5012604;28;20056;-57
2024/04/01 02:49:13;;;;;;;1.65;0.70;;;;;;;;;;5012687;28;20053;-56
2024/04/01 02:51:40;;;;;;;3.15;0.47;;;;;;;;;;5013284;28;20054;-58
2024/04/01 02:54:06;;;;;;;2.15;0.60;;;;;;;;;;5012247;28;20045;-58
2024/04/01 02:56:33;;;;;;;4.57;0.75;;;;;;;;;;5012477;28;20129;-50
2024/04/01 02:59:04;;;;;;;4.95;0.60;;;;;;;;;;5012203;28;20477;-53
2024/04/01 03:01:31;;;;;;;3.13;0.85;;;;;;;;;;5012679;28;20509;-50
2024/04/01 03:04:00;;;;;;;2.50;0.60;;;;;;;;;;5011796;28;20052;-52
2024/04/01 03:06:29;;;;;;;4.25;0.80;;;;;;;;;;5011974;28;20050;-50
2024/04/01 03:08:56;;;;;;;2.80;0.70;;;;;;;;;;5012297;28;20502;-49
2024/04/01 03:11:23;;;;;;;5.57;1.65;;;;;;;;;;5011859;28;20054;-54
2024/04/01 03:13:49;;;;;;;4.35;0.95;;;;;;;;;;5011981;28;20513;-57
2024/04/01 03:16:16;;;;;;;6.57;1.38;;;;;;;;;;5011641;28;20049;-48
2024/04/01 03:18:42;;;;;;;1.92;0.50;;;;;;;;;;5011709;28;20056;-55
2024/04/01 03:21:09;;;;;;;5.22;1.15;;;;;;;;;;5011957;28;20049;-51
2024/04/01 03:23:37;;;;;;;5.88;0.82;;;;;;;;;;5011365;28;20053;-54
2024/04/01 03:26:04;;;;;;;3.67;0.70;;;;;;;;;;5012135;28;20107;-49
2024/04/01 03:28:30;;;;;;;5.65;1.00;;;;;;;;;;5011732;28;20056;-52
2024/04/01 03:30:57;;;;;;;3.03;0.70;;;;;;;;;;5012094;28;20050;-52
2024/04/01 03:33:23;;;;;;;3.78;0.70;;;;;;;;;;5011489;28;20046;-49
2024/04/01 03:35:55;;;;;;;2.00;0.80;;;;;;;;;;5011666;28;20049;-49
2024/04/01 03:38:22;;;;;;;5.47;0.70;;;;;;;;;;5011773;28;20536;-49
2024/04/01 03:40:51;;;;;;;5.35;0.90;;;;;;;;;;5012118;28;20058;-54
2024/04/01 03:43:20;;;;;;;5.18;0.80;;;;;;;;;;5011231;28;20061;-51
2024/04/01 03:45:46;;;;;;;4.20;0.93;;;;;;;;;;5011623;28;20053;-53
2024/04/01 03:48:13;;;;;;;3.80;0.80;;;;;;;;;;5011743;28;20128;-50
2024/04/01 03:50:42;;;;;;;3.90;0.75;;;;;;;;;;5011449;28;20041;-55
2024/04/01 03:53:09;;;;;;;4.07;1.00;;;;;;;;;;5011500;28;20076;-49
2024/04/01 03:55:35;;;;;;;4.05;0.90;;;;;;;;;;5011276;28;20054;-54
2024/04/01 03:58:03;;;;;;;3.40;0.75;;;;;;;;;;5011748;28;20061;-54
2024/04/01 04:00:29;;;;;;;5.43;1.65;;;;;;;;;;5011576;28;20519;-51
2024/04/01 04:02:56;;;;;;;3.83;0.80;;;;;;;;;;5011280;28;20054;-53
2024/04/01 04:05:22;;;;;;;5.45;1.35;;;;;;;;;;5011189;28;20077;-49
2024/04/01 04:07:48;;;;;;;5.38;0.90;;;;;;;;;;5011374;28;20497;-51
2024/04/01 04:10:14;;;;;;;3.63;0.90;;;;;;;;;;5011532;28;20050;-49
2024/04/01 04:12:41;;;;;;;3.88;0.80;;;;;;;;;;5011431;28;20061;-49
2024/04/01 04:15:09;;;;;;;4.55;0.80;;;;;;;;;;5011367;28;20053;-50
2024/04/01 04:17:36;;;;;;;6.05;1.13;;;;;;;;;;5011042;28;20054;-48
2024/04/01 04:20:02;;;;;;;3.25;0.85;;;;;;;;;;5011155;28;20050;-52
2024/04/01 04:22:32;;;;;;;6.40;1.10;;;;;;;;;;5011089;28;20082;-54
2024/04/01 04:24:58;;;;;;;9.77;0.95;;;;;;;;;;5010942;28;20533;-51
2024/04/01 04:27:25;;;;;;;2.78;0.73;;;;;;;;;;5013796;28;20054;-54
2024/04/01 04:29:51;;;;;;;3.03;0.70;;;;;;;;;;5014993;28;20398;-48
2024/04/01 04:32:20;;;;;;;3.58;1.98;;;;;;;;;;5014904;28;20393;-58
2024/04/01 04:34:45;;;;;;;5.55;1.05;;;;;;;;;;5014949;28;20438;-51
2024/04/01 04:37:12;;;;;;;2.92;1.20;;;;;;;;;;5015045;28;20173;-50
2024/04/01 04:39:38;;;;;;;3.45;0.70;;;;;;;;;;5014793;28;20053;-51
2024/04/01 04:42:05;;;;;;;5.53;0.88;;;;;;;;;;5014680;28;20061;-50
2024/04/01 04:44:32;;;;;;;2.58;0.73;;;;;;;;;;5014088;28;20053;-51
2024/04/01 04:46:59;;;;;;;7.88;1.02;;;;;;;;;;5014766;28;20469;-49
2024/04/01 04:49:28;;;;;;;4.50;1.30;;;;;;;;;;5014759;28;20418;-50
2024/04/01 04:51:55;;;;;;;4.50;1.40;;;;;;;;;;5014387;28;20054;-51
2024/04/01 04:54:21;;;;;;;3.78;0.68;;;;;;;;;;5014098;28;20053;-53
2024/04/01 04:56:48;;;;;;;3.83;0.80;;;;;;;;;;5014608;28;20060;-53
2024/04/01 04:59:14;;;;;;;4.22;1.27;;;;;;;;;;5014434;28;20336;-49
2024/04/01 05:01:42;;;;;;;5.10;1.80;;;;;;;;;;5014171;28;20073;-50
2024/04/01 05:04:08;;;;;;;4.22;0.90;;;;;;;;;;5014087;28;20108;-52
2024/04/01 05:06:37;;;;;;;3.33;0.77;;;;;;;;;;5014106;28;20132;-51
2024/04/01 05:09:03;;;;;;;3.03;1.15;;;;;;;;;;5014195;28;20054;-49
2024/04/01 05:11:30;;;;;;;6.47;1.67;;;;;;;;;;5014075;28;20504;-55
2024/04/01 05:13:56;;;;;;;3.40;0.90;;;;;;;;;;5013973;28;20052;-53
2024/04/01 05:16:23;;;;;;;3.85;0.93;;;;;;;;;;5014037;28;20049;-48
2024/04/01 05:18:49;;;;;;;4.18;0.90;;;;;;;;;;5013714;28;20058;-53
2024/04/01 05:21:17;;;;;;;2.58;0.90;;;;;;;;;;5014010;28;20236;-54
2024/04/01 05:23:44;;;;;;;3.83;1.15;;;;;;;;;;5013537;28;20052;-54
2024/04/01 05:26:13;;;;;;;3.28;0.80;;;;;;;;;;5014114;28;20077;-51
2024/04/01 05:28:39;;;;;;;3.38;1.90;;;;;;;;;;5013825;28;20062;-56
2024/04/01 05:31:06;;;;;;;4.57;1.10;;;;;;;;;;5013964;28;20085;-50
2024/04/01 05:33:33;;;;;;;3.47;0.90;;;;;;;;;;5013583;28;20072;-53
2024/04/01 05:36:02;;;;;;;3.20;0.88;;;;;;;;;;5013536;28;20068;-48
2024/04/01 05:38:28;;;;;;;5.22;1.10;;;;;;;;;;5013296;28;20133;-50
2024/04/01 05:40:56;;;;;;;3.95;0.77;;;;;;;;;;5013921;28;20124;-51
2024/04/01 05:43:22;;;;;;;3.28;0.80;;;;;;;;;;5014593;28;20421;-52
2024/04/01 05:45:50;;;;;;;2.78;0.80;;;;;;;;;;5014914;28;20420;-52
2024/04/01 05:48:16;;;;;;;1.58;0.60;;;;;;;;;;5014816;28;20053;-55
2024/04/01 05:50:47;;;;;;;3.30;1.02;;;;;;;;;;5014436;28;20085;-55
2024/04/01 05:53:13;;;;;;;4.13;0.70;;;;;;;;;;5014381;28;20556;-52
2024/04/01 05:55:40;;;;;;;2.53;0.70;;;;;;;;;;5014411;28;20424;-53
2024/04/01 05:58:08;;;;;;;2.45;0.60;;;;;;;;;;5014583;28;20058;-52
2024/04/01 06:00:35;;;;;;;3.58;0.85;;;;;;;;;;5014433;28;20089;-50
2024/04/01 06:03:01;;;;;;;2.60;1.00;;;;;;;;;;5013876;28;20057;-53
2024/04/01 06:05:28;;;;;;;4.55;0.80;;;;;;;;;;5014240;28;20054;-51
2024/04/01 06:07:55;;;;;;;5.05;0.88;;;;;;;;;;5014290;28;20053;-51
2024/04/01 06:10:22;;;;;;;3.47;0.70;;;;;;;;;;5014211;28;20129;-51
2024/04/01 06:12:48;;;;;;;3.95;0.70;;;;;;;;;;5013993;28;20060;-55
2024/04/01 06:15:16;;;;;;;2.88;0.60;;;;;;;;;;5013795;28;20490;-54
2024/04/01 06:17:42;;;;;;;3.65;0.95;;;;;;;;;;5013898;28;20056;-53
2024/04/01 06:20:11;;;;;;;1.77;0.50;;;;;;;;;;5014110;28;20046;-53
2024/04/01 06:22:37;;;;;;;4.20;1.00;;;;;;;;;;5014040;28;20053;-53
2024/04/01 06:25:05;;;;;;;4.53;0.90;;;;;;;;;;5013944;28;20112;-53
2024/04/01 06:27:31;;;;;;;3.40;1.75;;;;;;;;;;5013865;28;20057;-55
2024/04/01 06:29:58;;;;;;;3.72;0.80;;;;;;;;;;5013886;28;20517;-50
2024/04/01 06:32:26;;;;;;;2.80;0.80;;;;;;;;;;5013709;28;20049;-52
2024/04/01 06:34:53;;;;;;;4.63;0.88;;;;;;;;;;5013633;28;20088;-51
2024/04/01 06:37:19;;;;;;;3.55;0.75;;;;;;;;;;5013655;28;20489;-53
2024/04/01 06:39:46;;;;;;;1.13;0.50;;;;;;;;;;5014002;28;20133;-53
2024/04/01 06:42:12;;;;;;;2.55;0.60;;;;;;;;;;5013624;28;20142;-52
2024/04/01 06:44:39;;;;;;;2.88;0.60;;;;;;;;;;5013154;28;21548;-48
2024/04/01 06:47:05;;;;;;;4.22;1.27;;;;;;;;;;5013845;28;20488;-55
2024/04/01 06:49:33;;;;;;;3.33;0.77;;;;;;;;;;5013104;28;20056;-57
2024/04/01 06:51:59;;;;;;;3.53;1.10;;;;;;;;;;5013125;28;20049;-51
2024/04/01 06:54:26;;;;;;;3.25;1.13;;;;;;;;;;5013058;28;20128;-54
2024/04/01 06:56:52;;;;;;;4.75;1.08;;;;;;;;;;5013372;28;20058;-49
2024/04/01 06:59:19;;;;;;;3.70;0.80;;;;;;;;;;5013737;28;20129;-53
2024/04/01 07:01:45;;;;;;;2.65;0.70;;;;;;;;;;5013112;28;20107;-56
2024/04/01 07:04:12;;;;;;;4.07;0.80;;;;;;;;;;5012815;28;20069;-53
2024/04/01 07:06:40;;;;;;;3.35;0.50;;;;;;;;;;5013452;28;20061;-54
2024/04/01 07:09:08;;;;;;;1.30;0.57;;;;;;;;;;5013172;28;20120;-53
2024/04/01 07:11:34;;;;;;;1.63;0.65;;;;;;;;;;5011943;28;20065;-56
2024/04/01 07:14:01;;;;;;;3.45;0.80;;;;;;;;;;5012196;28;20485;-51
2024/04/01 07:16:26;;;;;;;2.38;0.50;;;;;;;;;;5012264;28;20406;-54
2024/04/01 07:18:53;;;;;;;1.63;0.38;;;;;;;;;;5011914;28;20069;-53
2024/04/01 07:21:19;;;;;;;2.20;0.50;;;;;;;;;;5012038;28;20053;-53
2024/04/01 07:23:48;;;;;;;1.63;0.50;;;;;;;;;;5011385;28;20046;-49
2024/04/01 07:26:14;;;;;;;3.45;0.80;;;;;;;;;;5004285;28;20061;-50
2024/04/01 07:28:41;;;;;;;3.50;0.80;;;;;;;;;;5011681;28;20058;-48
2024/04/01 07:31:07;;;;;;;2.15;0.50;;;;;;;;;;5011873;28;20054;-53
2024/04/01 07:33:34;;;;;;;2.15;0.60;;;;;;;;;;5011625;28;20057;-54
2024/04/01 07:36:00;;;;;;;2.28;0.50;;;;;;;;;;5011862;28;20065;-51
2024/04/01 07:38:27;;;;;;;3.35;0.80;;;;;;;;;;5011955;28;20054;-56
2024/04/01 07:40:54;;;;;;;4.78;1.00;;;;;;;;;;5011763;28;20563;-54
2024/04/01 07:43:21;;;;;;;5.72;0.77;;;;;;;;;;5011657;28;20053;-51
2024/04/01 07:45:50;;;;;;;4.43;0.85;;;;;;;;;;5011849;28;20053;-50
2024/04/01 07:48:17;;;;;;;5.15;1.30;;;;;;;;;;5011797;28;20049;-51
2024/04/01 07:50:43;;;;;;;3.03;0.70;;;;;;;;;;5011699;28;20053;-49
2024/04/01 07:53:12;;;;;;;2.83;0.63;;;;;;;;;;5011708;28;20073;-49
2024/04/01 07:55:38;;;;;;;2.58;0.60;;;;;;;;;;5011829;28;20046;-50
2024/04/01 07:58:06;;;;;;;2.15;0.40;;;;;;;;;;5011759;28;20573;-54
2024/04/01 08:00:32;;;;;;;1.27;0.43;;;;;;;;;;5011724;28;20050;-49
2024/04/01 08:02:59;;;;;;;0.95;0.40;;;;;;;;;;5015393;28;20521;-55
2024/04/01 08:05:26;;;;;;;1.70;0.40;;;;;;;;;;5015373;28;20054;-52
2024/04/01 08:07:53;;;;;;;2.88;0.40;;;;;;;;;;5015642;28;20057;-52
2024/04/01 08:10:18;;;;;;;1.05;0.40;;;;;;;;;;5015445;28;20054;-57
2024/04/01 08:12:45;;;;;;;1.05;0.30;;;;;;;;;;5015476;28;20050;-51
2024/04/01 08:15:13;;;;;;;0.55;0.20;;;;;;;;;;5015131;28;20050;-51
2024/04/01 08:17:40;;;;;;;0.40;0.25;;;;;;;;;;5015073;28;20064;-53
2024/04/01 08:20:08;;;;;;;1.63;0.30;;;;;;;;;;5015420;28;20045;-53
2024/04/01 08:22:35;;;;;;;1.75;0.50;;;;;;;;;;5015132;28;20442;-49
2024/04/01 08:25:01;;;;;;;1.10;0.20;;;;;;;;;;5014697;28;20125;-50
2024/04/01 08:27:28;;;;;;;0.90;0.30;;;;;;;;;;5015005;28;20128;-53
2024/04/01 08:29:53;;;;;;;0.32;0.20;;;;;;;;;;5014882;28;20061;-56
2024/04/01 08:32:22;;;;;;;0.52;0.20;;;;;;;;;;5014747;28;20440;-49
2024/04/01 08:34:48;;;;;;;0.50;0.20;;;;;;;;;;5014560;28;20042;-54
2024/04/01 08:37:14;;;;;;;2.67;0.40;;;;;;;;;;5015139;28;20133;-53
2024/04/01 08:39:40;;;;;;;0.55;0.30;;;;;;;;;;5014899;28;20468;-49
2024/04/01 08:42:11;;;;;;;1.55;0.50;;;;;;;;;;5014733;28;20057;-54
2024/04/01 08:44:38;;;;;;;1.33;0.30;;;;;;;;;;5014278;28;20045;-52
2024/04/01 08:47:06;;;;;;;1.45;0.40;;;;;;;;;;5015009;28;20517;-49
2024/04/01 08:49:40;;;;;;;1.05;0.30;;;;;;;;;;5014951;28;20565;-48
2024/04/01 08:52:12;;;;;;;0.40;0.30;;;;;;;;;;5014648;28;20460;-49
2024/04/01 08:54:40;;;;;;;0.75;0.20;;;;;;;;;;5014135;28;20041;-52
2024/04/01 08:57:07;;;;;;;0.80;0.28;;;;;;;;;;5014272;28;20050;-50
2024/04/01 08:59:34;;;;;;;0.43;0.30;;;;;;;;;;5014390;28;20050;-50
2024/04/01 09:02:02;;;;;;;0.50;0.30;;;;;;;;;;5014303;28;20050;-49
2024/04/01 09:04:28;;;;;;;0.75;0.40;;;;;;;;;;5023681;28;20394;-55
2024/04/01 09:06:56;;;;;;;0.68;0.55;;;;;;;;;;5034436;28;20049;-50
2024/04/01 09:09:22;;;;;;;1.05;0.85;;;;;;;;;;5017595;28;20410;-54
2024/04/01 09:11:50;;;;;;;0.90;0.40;;;;;;;;;;5014433;28;20054;-55
2024/04/01 09:14:17;;;;;;;0.82;0.40;;;;;;;;;;5013305;28;20046;-58
2024/04/01 09:16:44;;;;;;;0.75;0.35;;;;;;;;;;5014318;28;20053;-57
2024/04/01 09:19:10;;;;;;;1.75;0.40;;;;;;;;;;5029545;28;20053;-55
2024/04/01 09:21:38;;;;;;;1.00;0.40;;;;;;;;;;5034179;28;20053;-52
2024/04/01 09:24:05;;;;;;;1.02;0.75;;;;;;;;;;5034135;28;20462;-56
2024/04/01 09:26:33;;;;;;;1.63;0.50;;;;;;;;;;5034200;28;20400;-56
2024/04/01 09:29:00;;;;;;;1.80;0.57;;;;;;;;;;5033931;28;20053;-57
2024/04/01 09:31:27;;;;;;;1.27;0.40;;;;;;;;;;5016675;28;20053;-58
2024/04/01 09:33:53;;;;;;;0.70;0.40;;;;;;;;;;5013822;28;20057;-57
2024/04/01 09:36:20;;;;;;;1.17;0.40;;;;;;;;;;5013859;28;20563;-55
2024/04/01 09:38:46;;;;;;;1.05;0.43;;;;;;;;;;5014096;28;20061;-54
2024/04/01 09:41:15;;;;;;;1.98;0.55;;;;;;;;;;5013839;28;20049;-57
2024/04/01 09:43:41;;;;;;;0.57;0.30;;;;;;;;;;4994486;28;20509;-55
2024/04/01 09:46:08;;;;;;;0.45;0.30;;;;;;;;;;5001059;28;20133;-57
2024/04/01 09:48:36;;;;;;;1.08;0.40;;;;;;;;;;5014097;28;20419;-55
2024/04/01 09:51:04;;;;;;;0.55;0.30;;;;;;;;;;5013711;28;20060;-58
2024/04/01 09:53:29;;;;;;;0.85;0.30;;;;;;;;;;5023170;28;20063;-54
2024/04/01 09:56:29;;;;;;;0.75;0.50;;;;;;;;;;5028335;28;20045;-58
2024/04/01 09:59:30;;;;;;;1.17;0.50;;;;;;;;;;5007941;28;20508;-52
2024/04/01 10:02:14;;;;;;;;;;;;;;;;;;5020190;28;20049;-58
2024/04/01 10:05:05;;;;;;;0.80;0.45;;;;;;;;;;5033281;28;19921;-57
2024/04/01 10:08:17;;;;;;;0.57;0.38;;;;;;;;;;5033504;28;20493;-58
2024/04/01 10:11:19;;;;;;;0.90;0.47;;;;;;;;;;5013425;28;20496;-55
2024/04/01 10:14:11;;;;;;;1.55;0.40;;;;;;;;;;5032881;28;20487;-58
2024/04/01 10:17:07;;;;;;;5.60;0.50;;;;;;;;;;4981356;28;20050;-56
2024/04/01 10:20:09;;;;;;;1.35;0.40;;;;;;;;;;5013047;28;20066;-57
2024/04/01 10:23:42;;;;;;;0.55;0.40;;;;;;;;;;5013397;28;20064;-56
2024/04/01 10:26:41;;;;;;;0.95;0.40;;;;;;;;;;4971585;28;20051;-54
2024/04/01 10:29:49;;;;;;;0.63;0.30;;;;;;;;;;4971907;28;20422;-59
2024/04/01 10:33:02;;;;;;;1.42;0.40;;;;;;;;;;4975306;28;20046;-58
2024/04/01 10:36:01;;;;;;;1.52;0.52;;;;;;;;;;4993531;28;20057;-58
2024/04/01 10:38:56;;;;;;;0.47;0.32;;;;;;;;;;5028116;28;20489;-55
2024/04/01 10:41:50;;;;;;;1.48;0.40;;;;;;;;;;5032435;28;20053;-59
2024/04/01 10:44:51;;;;;;;0.82;0.38;;;;;;;;;;5016513;28;20071;-56
2024/04/01 10:47:46;;;;;;;3.08;1.38;;;;;;;;;;5016909;28;20072;-58
2024/04/01 10:50:31;;;;;;;1.35;0.40;;;;;;;;;;5012901;28;20050;-59
2024/04/01 10:53:37;;;;;;;1.63;0.85;;;;;;;;;;5012815;28;20050;-58
2024/04/01 10:56:38;;;;;;;1.38;0.77;;;;;;;;;;5012847;28;20057;-56
2024/04/01 10:59:39;;;;;;;2.92;0.98;;;;;;;;;;5001904;28;20054;-58
2024/04/01 11:02:23;;;;;;;0.73;0.43;;;;;;;;;;5012687;28;20050;-56
2024/04/01 11:05:10;;;;;;;0.77;0.40;;;;;;;;;;5012395;28;20132;-54
2024/04/01 11:07:52;;;;;;;0.88;0.40;;;;;;;;;;5031143;28;20511;-58
2024/04/01 11:10:29;;;;;;;0.82;0.35;;;;;;;;;;5016358;28;20504;-58
2024/04/01 11:13:03;;;;;;;0.80;0.32;;;;;;;;;;5025384;28;20507;-58
2024/04/01 11:15:30;;;;;;;0.60;0.60;;;;;;;;;;5014874;28;20141;-58
2024/04/01 11:18:09;;;;;;;0.93;0.32;;;;;;;;;;5012286;28;20050;-58
2024/04/01 11:20:41;;;;;;;0.55;0.30;;;;;;;;;;5012506;28;20485;-54
2024/04/01 11:23:35;;;;;;;1.48;0.60;;;;;;;;;;5012122;28;20061;-55
2024/04/01 11:26:19;;;;;;;0.95;0.40;;;;;;;;;;4998357;28;20053;-56
2024/04/01 11:29:01;;;;;;;1.10;0.50;;;;;;;;;;5012285;28;20057;-56
2024/04/01 11:31:31;;;;;;;0.50;0.47;;;;;;;;;;5012152;28;20133;-58
2024/04/01 11:34:09;;;;;;;;;;;;;;;;;;5012802;28;20058;-57
2024/04/01 11:36:46;;;;;;;1.05;0.45;;;;;;;;;;5011954;28;19929;-57
2024/04/01 11:39:16;;;;;;;2.13;0.65;;;;;;;;;;5012601;28;20221;-57
2024/04/01 11:41:46;;;;;;;1.77;0.60;;;;;;;;;;5011953;28;20144;-58
2024/04/01 11:44:16;;;;;;;1.40;0.40;;;;;;;;;;5012094;28;20061;-57
2024/04/01 11:46:45;;;;;;;0.93;0.47;;;;;;;;;;5012279;28;20054;-58
2024/04/01 11:49:11;;;;;;;0.75;0.30;;;;;;;;;;5012226;28;20455;-58
2024/04/01 11:51:39;;;;;;;0.70;0.50;;;;;;;;;;5027976;28;20049;-58
2024/04/01 11:54:05;;;;;;;0.75;0.35;;;;;;;;;;5012008;28;20449;-56
2024/04/01 11:56:39;;;;;;;0.73;0.30;;;;;;;;;;5012471;28;20049;-57
2024/04/01 11:59:06;;;;;;;1.25;0.35;;;;;;;;;;5012064;28;20046;-55
2024/04/01 12:01:35;;;;;;;0.88;0.40;;;;;;;;;;5011732;28;20078;-58
2024/04/01 12:04:02;;;;;;;1.50;0.32;;;;;;;;;;5017603;28;20045;-57
2024/04/01 12:06:31;;;;;;;0.50;0.30;;;;;;;;;;5023488;28;20474;-54
2024/04/01 12:08:59;;;;;;;0.32;0.20;;;;;;;;;;5026603;28;20046;-53
2024/04/01 12:11:32;;;;;;;0.30;0.22;;;;;;;;;;5011757;28;20100;-58
2024/04/01 12:13:58;;;;;;;1.92;0.40;;;;;;;;;;5024862;28;20041;-59
2024/04/01 12:16:25;;;;;;;0.82;0.30;;;;;;;;;;5022728;28;20061;-59
2024/04/01 12:18:52;;;;;;;0.50;0.30;;;;;;;;;;5024144;28;20045;-56
2024/04/01 12:21:22;;;;;;;0.75;0.40;;;;;;;;;;5015165;28;20136;-59
2024/04/01 12:23:50;;;;;;;1.25;0.40;;;;;;;;;;5023812;28;20053;-59
2024/04/01 12:26:19;;;;;;;1.13;0.50;;;;;;;;;;5015360;28;20042;-59
2024/04/01 12:28:46;;;;;;;0.77;0.30;;;;;;;;;;5011627;28;20049;-59
2024/04/01 12:31:15;;;;;;;1.17;0.45;;;;;;;;;;5011678;28;20081;-57
2024/04/01 12:33:42;;;;;;;0.52;0.32;;;;;;;;;;5011325;28;20052;-53
2024/04/01 12:36:10;;;;;;;1.27;0.40;;;;;;;;;;5011304;28;20050;-53
2024/04/01 12:38:39;;;;;;;0.82;0.40;;;;;;;;;;5011325;28;20111;-58
2024/04/01 12:41:08;;;;;;;0.40;0.40;;;;;;;;;;5025707;28;20091;-59
2024/04/01 12:43:36;;;;;;;1.95;0.40;;;;;;;;;;5012409;28;20056;-57
2024/04/01 12:46:04;;;;;;;0.65;0.38;;;;;;;;;;5011489;28;20144;-59
2024/04/01 12:48:30;;;;;;;0.52;0.30;;;;;;;;;;5012910;28;20050;-59
2024/04/01 12:50:59;;;;;;;0.95;0.40;;;;;;;;;;5015287;28;20080;-57
2024/04/01 12:53:55;;;;;;;0.82;0.40;;;;;;;;;;5023263;28;20393;-56
2024/04/01 12:56:34;;;;;;;2.35;0.40;;;;;;;;;;5014776;28;20060;-57
2024/04/01 12:59:15;;;;;;;0.47;0.30;;;;;;;;;;5015389;28;20050;-58
2024/04/01 13:01:51;;;;;;;0.47;0.30;;;;;;;;;;5022789;28;20100;-62
2024/04/01 13:04:35;;;;;;;0.38;0.30;;;;;;;;;;5014975;28;20362;-58
2024/04/01 13:07:21;;;;;;;0.95;0.30;;;;;;;;;;4995393;28;20486;-58
2024/04/01 13:09:53;;;;;;;0.80;0.40;;;;;;;;;;4995146;28;20058;-54
2024/04/01 13:12:35;;;;;;;0.57;0.40;;;;;;;;;;4995072;28;20050;-58
2024/04/01 13:15:13;;;;;;;0.35;0.22;;;;;;;;;;4995227;28;20062;-54
2024/04/01 13:17:53;;;;;;;0.60;0.30;;;;;;;;;;5005627;28;20509;-58
2024/04/01 13:20:25;;;;;;;0.80;0.30;;;;;;;;;;5014820;28;20413;-58
2024/04/01 13:23:00;;;;;;;1.55;0.30;;;;;;;;;;5014305;28;20066;-58
2024/04/01 13:25:31;;;;;;;0.60;0.55;;;;;;;;;;5014657;28;20409;-55
2024/04/01 13:28:06;;;;;;;0.75;0.40;;;;;;;;;;5022354;28;20065;-58
2024/04/01 13:30:47;;;;;;;0.73;0.30;;;;;;;;;;5014248;28;20054;-57
2024/04/01 13:33:22;;;;;;;0.77;0.40;;;;;;;;;;5014307;28;20509;-58
2024/04/01 13:36:04;;;;;;;0.75;0.45;;;;;;;;;;5014091;28;20046;-58
2024/04/01 13:38:46;;;;;;;0.32;0.30;;;;;;;;;;5014254;28;20628;-54
2024/04/01 13:41:20;;;;;;;0.60;0.30;;;;;;;;;;5014219;28;20046;-58
2024/04/01 13:43:59;;;;;;;0.47;0.32;;;;;;;;;;5013827;28;20493;-55
2024/04/01 13:46:39;;;;;;;0.77;0.40;;;;;;;;;;5014024;28;20046;-57
2024/04/01 13:49:44;;;;;;;0.85;0.30;;;;;;;;;;5019589;28;20133;-55
2024/04/01 13:52:24;;;;;;;0.30;0.20;;;;;;;;;;5033890;28;20053;-57
2024/04/01 13:55:00;;;;;;;1.00;0.30;;;;;;;;;;5002413;28;20512;-57
2024/04/01 13:57:40;;;;;;;0.52;0.28;;;;;;;;;;5032861;28;20045;-55
2024/04/01 14:00:13;;;;;;;0.20;0.20;;;;;;;;;;5013072;28;20060;-56
2024/04/01 14:02:48;;;;;;;0.40;0.25;;;;;;;;;;5032424;28;20049;-57
2024/04/01 14:05:29;;;;;;;0.40;0.40;;;;;;;;;;5032937;28;20046;-57
2024/04/01 14:08:05;;;;;;;0.45;0.30;;;;;;;;;;5033615;28;20397;-57
2024/04/01 14:10:44;;;;;;;0.45;0.32;;;;;;;;;;5033002;28;20049;-55
2024/04/01 14:13:26;;;;;;;1.15;0.35;;;;;;;;;;5033218;28;20405;-58
2024/04/01 14:16:03;;;;;;;0.85;0.30;;;;;;;;;;5033481;28;20056;-55
2024/04/01 14:18:48;;;;;;;0.52;0.30;;;;;;;;;;5032980;28;20103;-57
2024/04/01 14:21:16;;;;;;;0.57;0.40;;;;;;;;;;5026011;28;20406;-57
2024/04/01 14:23:42;;;;;;;0.50;0.35;;;;;;;;;;5032144;28;20053;-57
2024/04/01 14:26:11;;;;;;;0.50;0.30;;;;;;;;;;5032736;28;20052;-54
2024/04/01 14:28:37;;;;;;;0.77;0.40;;;;;;;;;;5033121;28;20493;-57
2024/04/01 14:31:05;;;;;;;0.22;0.22;;;;;;;;;;5032628;28;20095;-55
2024/04/01 14:33:32;;;;;;;0.50;0.40;;;;;;;;;;5032515;28;20057;-51
2024/04/01 14:36:00;;;;;;;0.20;0.20;;;;;;;;;;5032902;28;20528;-50
2024/04/01 14:38:26;;;;;;;1.35;0.40;;;;;;;;;;5032954;28;20493;-51
2024/04/01 14:40:53;;;;;;;0.55;0.35;;;;;;;;;;5032582;28;20072;-53
2024/04/01 14:43:19;;;;;;;0.75;0.40;;;;;;;;;;5032364;28;20053;-54
2024/04/01 14:45:46;;;;;;;0.80;0.40;;;;;;;;;;5032229;28;20049;-53
2024/04/01 14:48:14;;;;;;;1.27;0.60;;;;;;;;;;5032384;28;20045;-53
2024/04/01 14:50:44;;;;;;;1.05;0.47;;;;;;;;;;5032433;28;20053;-56
2024/04/01 14:53:12;;;;;;;0.60;0.30;;;;;;;;;;5033240;28;20132;-54
2024/04/01 14:55:40;;;;;;;0.52;0.40;;;;;;;;;;5031886;28;20060;-48
2024/04/01 14:58:07;;;;;;;0.95;0.40;;;;;;;;;;5032094;28;20054;-53
2024/04/01 15:00:34;;;;;;;2.03;0.50;;;;;;;;;;5032130;28;20420;-50
2024/04/01 15:03:02;;;;;;;0.90;0.40;;;;;;;;;;5030565;28;20412;-52